sensor_id;sensor_type;location;lat;lon;timestamp;temperature;humidity
24232;DHT22;12364;47.810;8.810;2024-01-07T00:01:30;7.10;99.90
24232;DHT22;12364;47.810;8.810;2024-01-07T00:03:57;7.10;99.90
24232;DHT22;12364;47.810;8.810;2024-01-07T00:06:24;6.90;99.90
24232;DHT22;12364;47.810;8.810;2024-01-07T00:08:51;6.90;99.90
24232;DHT22;12364;47.810;8.810;2024-01-07T00:11:18;6.90;99.90
24232;DHT22;12364;47.810;8.810;2024-01-07T00:13:45;6.90;99.90
24232;DHT22;12364;47.810;8.810;2024-01-07T00:16:12;7.00;99.90
24232;DHT22;12364;47.810;8.810;2024-01-07T00:18:39;6.90;99.90
24232;DHT22;12364;47.810;8.810;2024-01-07T00:21:07;7.00;99.90
24232;DHT22;12364;47.810;8.810;2024-01-07T00:23:34;7.10;99.90
24232;DHT22;12364;47.810;8.810;2024-01-07T00:26:01;7.20;99.90
24232;DHT22;12364;47.810;8.810;2024-01-07T00:28:30;7.20;99.90
24232;DHT22;12364;47.810;8.810;2024-01-07T05:30:48;6.40;99.90
24232;DHT22;12364;47.810;8.810;2024-01-07T05:33:16;6.60;99.90
24232;DHT22;12364;47.810;8.810;2024-01-07T05:35:43;6.90;99.90
24232;DHT22;12364;47.810;8.810;2024-01-07T05:38:10;6.70;99.90
24232;DHT22;12364;47.810;8.810;2024-01-07T05:40:37;6.80;99.90
24232;DHT22;12364;47.810;8.810;2024-01-07T05:43:04;7.00;99.90
24232;DHT22;12364;47.810;8.810;2024-01-07T05:45:31;7.30;99.90
24232;DHT22;12364;47.810;8.810;2024-01-07T05:47:58;7.00;99.90
24232;DHT22;12364;47.810;8.810;2024-01-07T05:50:25;7.10;99.90
24232;DHT22;12364;47.810;8.810;2024-01-07T05:52:52;7.00;99.90
24232;DHT22;12364;47.810;8.810;2024-01-07T05:55:19;7.10;99.90
24232;DHT22;12364;47.810;8.810;2024-01-07T05:57:46;7.10;99.90
24232;DHT22;12364;47.810;8.810;2024-01-07T06:00:14;7.20;99.90
24232;DHT22;12364;47.810;8.810;2024-01-07T06:02:41;7.20;99.90
24232;DHT22;12364;47.810;8.810;2024-01-07T06:05:08;7.20;99.90
24232;DHT22;12364;47.810;8.810;2024-01-07T06:07:35;7.20;99.90
24232;DHT22;12364;47.810;8.810;2024-01-07T06:10:03;7.20;99.90
24232;DHT22;12364;47.810;8.810;2024-01-07T06:12:30;7.20;99.90
24232;DHT22;12364;47.810;8.810;2024-01-07T06:14:57;7.10;99.90
24232;DHT22;12364;47.810;8.810;2024-01-07T06:17:24;7.10;99.90
24232;DHT22;12364;47.810;8.810;2024-01-07T06:19:51;7.10;99.90
24232;DHT22;12364;47.810;8.810;2024-01-07T06:22:18;7.00;99.90
24232;DHT22;12364;47.810;8.810;2024-01-07T06:24:45;7.00;99.90
24232;DHT22;12364;47.810;8.810;2024-01-07T06:27:12;7.00;99.90
24232;DHT22;12364;47.810;8.810;2024-01-07T06:29:40;7.00;99.90
24232;DHT22;12364;47.810;8.810;2024-01-07T06:32:07;7.00;99.90
24232;DHT22;12364;47.810;8.810;2024-01-07T06:34:34;7.00;99.90
24232;DHT22;12364;47.810;8.810;2024-01-07T06:37:01;6.90;99.90
24232;DHT22;12364;47.810;8.810;2024-01-07T06:39:28;6.90;99.90
24232;DHT22;12364;47.810;8.810;2024-01-07T06:41:55;6.80;99.90
24232;DHT22;12364;47.810;8.810;2024-01-07T06:44:22;6.70;99.90
24232;DHT22;12364;47.810;8.810;2024-01-07T06:46:49;6.90;99.90
24232;DHT22;12364;47.810;8.810;2024-01-07T06:49:16;7.10;99.90
24232;DHT22;12364;47.810;8.810;2024-01-07T06:51:43;6.90;99.90
24232;DHT22;12364;47.810;8.810;2024-01-07T06:54:11;7.00;99.90
24232;DHT22;12364;47.810;8.810;2024-01-07T06:56:41;6.90;99.90
24232;DHT22;12364;47.810;8.810;2024-01-07T06:59:08;7.00;99.90
24232;DHT22;12364;47.810;8.810;2024-01-07T07:01:35;7.00;99.90
24232;DHT22;12364;47.810;8.810;2024-01-07T07:04:02;7.00;99.90
24232;DHT22;12364;47.810;8.810;2024-01-07T07:06:29;6.90;99.90
24232;DHT22;12364;47.810;8.810;2024-01-07T07:08:56;7.00;99.90
24232;DHT22;12364;47.810;8.810;2024-01-07T07:11:23;7.00;99.90
24232;DHT22;12364;47.810;8.810;2024-01-07T07:13:50;7.00;99.90
24232;DHT22;12364;47.810;8.810;2024-01-07T07:16:17;6.70;99.90
24232;DHT22;12364;47.810;8.810;2024-01-07T07:18:44;6.80;99.90
24232;DHT22;12364;47.810;8.810;2024-01-07T07:21:12;6.70;99.90
24232;DHT22;12364;47.810;8.810;2024-01-07T07:23:39;6.70;99.90
24232;DHT22;12364;47.810;8.810;2024-01-07T07:26:06;6.60;99.90
24232;DHT22;12364;47.810;8.810;2024-01-07T07:28:34;6.60;99.90
24232;DHT22;12364;47.810;8.810;2024-01-07T07:31:01;6.90;99.90
24232;DHT22;12364;47.810;8.810;2024-01-07T07:33:28;6.60;99.90
24232;DHT22;12364;47.810;8.810;2024-01-07T07:35:55;7.20;99.90
24232;DHT22;12364;47.810;8.810;2024-01-07T07:38:22;7.00;99.90
24232;DHT22;12364;47.810;8.810;2024-01-07T07:40:49;7.00;99.90
24232;DHT22;12364;47.810;8.810;2024-01-07T07:43:19;7.20;99.90
24232;DHT22;12364;47.810;8.810;2024-01-07T07:45:47;7.00;99.90
24232;DHT22;12364;47.810;8.810;2024-01-07T07:48:14;7.00;99.90
24232;DHT22;12364;47.810;8.810;2024-01-07T07:50:42;7.10;99.90
24232;DHT22;12364;47.810;8.810;2024-01-07T07:53:09;7.00;99.90
24232;DHT22;12364;47.810;8.810;2024-01-07T07:55:36;7.00;99.90
24232;DHT22;12364;47.810;8.810;2024-01-07T07:58:03;7.10;99.90
24232;DHT22;12364;47.810;8.810;2024-01-07T08:00:30;6.60;99.90
24232;DHT22;12364;47.810;8.810;2024-01-07T08:02:57;6.20;99.90
24232;DHT22;12364;47.810;8.810;2024-01-07T08:05:24;6.20;99.90
24232;DHT22;12364;47.810;8.810;2024-01-07T08:07:51;6.00;99.90
24232;DHT22;12364;47.810;8.810;2024-01-07T08:10:18;6.30;99.90
24232;DHT22;12364;47.810;8.810;2024-01-07T08:12:45;6.10;99.90
24232;DHT22;12364;47.810;8.810;2024-01-07T08:15:12;6.00;99.90
24232;DHT22;12364;47.810;8.810;2024-01-07T08:17:39;6.00;99.90
24232;DHT22;12364;47.810;8.810;2024-01-07T08:20:07;5.80;99.90
24232;DHT22;12364;47.810;8.810;2024-01-07T08:22:35;5.70;99.90
24232;DHT22;12364;47.810;8.810;2024-01-07T08:25:02;5.90;99.90
24232;DHT22;12364;47.810;8.810;2024-01-07T08:27:30;5.80;99.90
24232;DHT22;12364;47.810;8.810;2024-01-07T08:29:59;5.60;99.90
24232;DHT22;12364;47.810;8.810;2024-01-07T08:32:27;5.70;99.90
24232;DHT22;12364;47.810;8.810;2024-01-07T08:34:54;5.80;99.90
24232;DHT22;12364;47.810;8.810;2024-01-07T08:37:21;5.50;99.90
24232;DHT22;12364;47.810;8.810;2024-01-07T08:39:48;5.60;99.90
24232;DHT22;12364;47.810;8.810;2024-01-07T08:42:15;5.70;99.90
24232;DHT22;12364;47.810;8.810;2024-01-07T08:44:42;5.70;99.90
24232;DHT22;12364;47.810;8.810;2024-01-07T08:47:09;5.80;99.90
24232;DHT22;12364;47.810;8.810;2024-01-07T08:49:36;5.70;99.90
24232;DHT22;12364;47.810;8.810;2024-01-07T08:52:05;5.70;99.90
24232;DHT22;12364;47.810;8.810;2024-01-07T08:54:32;5.70;99.90
24232;DHT22;12364;47.810;8.810;2024-01-07T08:57:00;5.20;99.90
24232;DHT22;12364;47.810;8.810;2024-01-07T08:59:27;5.30;99.90
24232;DHT22;12364;47.810;8.810;2024-01-07T09:01:54;5.20;99.90
24232;DHT22;12364;47.810;8.810;2024-01-07T09:04:21;5.50;99.90
24232;DHT22;12364;47.810;8.810;2024-01-07T09:06:48;5.40;99.90
24232;DHT22;12364;47.810;8.810;2024-01-07T09:09:15;5.30;99.90
24232;DHT22;12364;47.810;8.810;2024-01-07T09:11:42;5.70;99.90
24232;DHT22;12364;47.810;8.810;2024-01-07T09:14:09;5.60;99.90
24232;DHT22;12364;47.810;8.810;2024-01-07T09:16:36;5.70;99.90
24232;DHT22;12364;47.810;8.810;2024-01-07T09:19:03;5.50;99.90
24232;DHT22;12364;47.810;8.810;2024-01-07T09:21:30;5.50;99.90
24232;DHT22;12364;47.810;8.810;2024-01-07T09:23:57;5.40;99.90
24232;DHT22;12364;47.810;8.810;2024-01-07T09:26:26;5.40;99.90
24232;DHT22;12364;47.810;8.810;2024-01-07T09:28:53;5.40;99.90
24232;DHT22;12364;47.810;8.810;2024-01-07T09:31:20;5.50;99.90
24232;DHT22;12364;47.810;8.810;2024-01-07T09:33:47;5.50;99.90
24232;DHT22;12364;47.810;8.810;2024-01-07T09:36:14;5.50;99.90
24232;DHT22;12364;47.810;8.810;2024-01-07T09:38:55;5.70;99.90
24232;DHT22;12364;47.810;8.810;2024-01-07T09:41:23;5.80;99.90
24232;DHT22;12364;47.810;8.810;2024-01-07T09:43:50;5.80;99.90
24232;DHT22;12364;47.810;8.810;2024-01-07T09:46:19;5.80;99.90
24232;DHT22;12364;47.810;8.810;2024-01-07T09:48:46;5.80;99.90
24232;DHT22;12364;47.810;8.810;2024-01-07T09:51:13;6.00;99.90
24232;DHT22;12364;47.810;8.810;2024-01-07T09:53:40;5.80;99.90
24232;DHT22;12364;47.810;8.810;2024-01-07T09:56:12;5.90;99.90
24232;DHT22;12364;47.810;8.810;2024-01-07T09:58:45;6.10;99.90
24232;DHT22;12364;47.810;8.810;2024-01-07T10:01:19;6.10;99.90
24232;DHT22;12364;47.810;8.810;2024-01-07T10:03:46;6.20;99.90
24232;DHT22;12364;47.810;8.810;2024-01-07T10:06:17;6.20;99.90
24232;DHT22;12364;47.810;8.810;2024-01-07T10:08:44;6.20;99.90
24232;DHT22;12364;47.810;8.810;2024-01-07T10:11:13;6.20;99.90
24232;DHT22;12364;47.810;8.810;2024-01-07T10:13:40;6.10;99.90
24232;DHT22;12364;47.810;8.810;2024-01-07T10:16:07;6.40;99.90
24232;DHT22;12364;47.810;8.810;2024-01-07T10:18:36;6.40;99.90
24232;DHT22;12364;47.810;8.810;2024-01-07T10:21:05;6.50;99.90
24232;DHT22;12364;47.810;8.810;2024-01-07T10:23:33;6.40;99.90
24232;DHT22;12364;47.810;8.810;2024-01-07T10:26:00;6.60;99.90
24232;DHT22;12364;47.810;8.810;2024-01-07T10:28:38;6.60;99.90
24232;DHT22;12364;47.810;8.810;2024-01-07T10:31:07;6.70;99.90
24232;DHT22;12364;47.810;8.810;2024-01-07T10:33:34;6.70;99.90
24232;DHT22;12364;47.810;8.810;2024-01-07T10:36:02;6.60;99.90
24232;DHT22;12364;47.810;8.810;2024-01-07T10:38:33;6.50;99.90
24232;DHT22;12364;47.810;8.810;2024-01-07T10:41:01;6.60;99.90
24232;DHT22;12364;47.810;8.810;2024-01-07T10:43:29;6.80;99.90
24232;DHT22;12364;47.810;8.810;2024-01-07T10:45:56;6.60;99.90
24232;DHT22;12364;47.810;8.810;2024-01-07T10:48:28;6.50;99.90
24232;DHT22;12364;47.810;8.810;2024-01-07T10:50:59;6.50;99.90
24232;DHT22;12364;47.810;8.810;2024-01-07T10:53:27;6.50;99.90
24232;DHT22;12364;47.810;8.810;2024-01-07T10:55:58;6.40;99.90
24232;DHT22;12364;47.810;8.810;2024-01-07T10:58:27;6.50;99.90
24232;DHT22;12364;47.810;8.810;2024-01-07T11:00:54;6.60;99.90
24232;DHT22;12364;47.810;8.810;2024-01-07T11:06:13;6.30;99.90
24232;DHT22;12364;47.810;8.810;2024-01-07T11:11:16;6.00;99.90
24232;DHT22;12364;47.810;8.810;2024-01-07T11:13:44;5.90;99.90
24232;DHT22;12364;47.810;8.810;2024-01-07T11:16:11;5.90;99.90
24232;DHT22;12364;47.810;8.810;2024-01-07T11:18:39;6.10;99.90
24232;DHT22;12364;47.810;8.810;2024-01-07T11:21:07;5.90;99.90
24232;DHT22;12364;47.810;8.810;2024-01-07T11:23:34;5.90;99.90
24232;DHT22;12364;47.810;8.810;2024-01-07T11:26:06;6.00;99.90
24232;DHT22;12364;47.810;8.810;2024-01-07T11:31:09;6.10;99.90
24232;DHT22;12364;47.810;8.810;2024-01-07T11:33:37;6.00;99.90
24232;DHT22;12364;47.810;8.810;2024-01-07T11:36:06;6.20;99.90
24232;DHT22;12364;47.810;8.810;2024-01-07T11:38:34;6.30;99.90
24232;DHT22;12364;47.810;8.810;2024-01-07T11:41:02;6.20;99.90
24232;DHT22;12364;47.810;8.810;2024-01-07T11:43:35;6.00;99.90
24232;DHT22;12364;47.810;8.810;2024-01-07T11:46:02;6.10;99.90
24232;DHT22;12364;47.810;8.810;2024-01-07T11:48:29;5.90;99.90
24232;DHT22;12364;47.810;8.810;2024-01-07T11:50:57;5.90;99.90
24232;DHT22;12364;47.810;8.810;2024-01-07T11:53:24;5.80;99.90
24232;DHT22;12364;47.810;8.810;2024-01-07T11:55:51;5.60;99.90
24232;DHT22;12364;47.810;8.810;2024-01-07T11:58:18;5.60;99.90
24232;DHT22;12364;47.810;8.810;2024-01-07T12:00:45;5.50;99.90
24232;DHT22;12364;47.810;8.810;2024-01-07T12:03:12;5.60;99.90
24232;DHT22;12364;47.810;8.810;2024-01-07T12:05:39;5.30;99.90
24232;DHT22;12364;47.810;8.810;2024-01-07T12:08:10;5.10;99.90
24232;DHT22;12364;47.810;8.810;2024-01-07T12:10:37;5.20;99.90
24232;DHT22;12364;47.810;8.810;2024-01-07T12:13:04;5.30;99.90
24232;DHT22;12364;47.810;8.810;2024-01-07T12:15:32;5.30;99.90
24232;DHT22;12364;47.810;8.810;2024-01-07T12:18:00;5.50;99.90
24232;DHT22;12364;47.810;8.810;2024-01-07T12:20:29;5.40;99.90
24232;DHT22;12364;47.810;8.810;2024-01-07T12:23:05;5.50;99.90
24232;DHT22;12364;47.810;8.810;2024-01-07T12:25:32;5.10;99.90
24232;DHT22;12364;47.810;8.810;2024-01-07T12:28:00;5.00;99.90
24232;DHT22;12364;47.810;8.810;2024-01-07T12:30:27;5.00;99.90
24232;DHT22;12364;47.810;8.810;2024-01-07T12:32:54;5.20;99.90
24232;DHT22;12364;47.810;8.810;2024-01-07T12:35:24;5.20;99.90
24232;DHT22;12364;47.810;8.810;2024-01-07T12:37:52;5.00;99.90
24232;DHT22;12364;47.810;8.810;2024-01-07T12:40:19;5.20;99.90
24232;DHT22;12364;47.810;8.810;2024-01-07T12:42:46;4.80;99.90
24232;DHT22;12364;47.810;8.810;2024-01-07T12:45:14;4.80;99.90
24232;DHT22;12364;47.810;8.810;2024-01-07T12:47:42;4.80;99.90
24232;DHT22;12364;47.810;8.810;2024-01-07T12:50:10;5.00;99.90
24232;DHT22;12364;47.810;8.810;2024-01-07T12:52:38;4.90;99.90
24232;DHT22;12364;47.810;8.810;2024-01-07T12:55:06;5.00;99.90
24232;DHT22;12364;47.810;8.810;2024-01-07T12:57:34;5.00;99.90
24232;DHT22;12364;47.810;8.810;2024-01-07T13:00:02;5.20;99.90
24232;DHT22;12364;47.810;8.810;2024-01-07T13:02:33;5.00;99.90
24232;DHT22;12364;47.810;8.810;2024-01-07T13:05:01;5.10;99.90
24232;DHT22;12364;47.810;8.810;2024-01-07T13:07:28;5.10;99.90
24232;DHT22;12364;47.810;8.810;2024-01-07T13:09:55;5.10;99.90
24232;DHT22;12364;47.810;8.810;2024-01-07T13:12:22;5.00;99.90
24232;DHT22;12364;47.810;8.810;2024-01-07T13:15:02;4.80;99.90
24232;DHT22;12364;47.810;8.810;2024-01-07T13:17:30;5.10;99.90
24232;DHT22;12364;47.810;8.810;2024-01-07T13:19:57;4.90;99.90
24232;DHT22;12364;47.810;8.810;2024-01-07T13:22:24;4.80;99.90
24232;DHT22;12364;47.810;8.810;2024-01-07T13:24:51;4.90;99.90
24232;DHT22;12364;47.810;8.810;2024-01-07T13:27:21;5.10;99.90
24232;DHT22;12364;47.810;8.810;2024-01-07T13:29:50;4.90;99.90
24232;DHT22;12364;47.810;8.810;2024-01-07T13:32:17;4.70;99.90
24232;DHT22;12364;47.810;8.810;2024-01-07T13:34:45;4.60;99.90
24232;DHT22;12364;47.810;8.810;2024-01-07T13:37:12;4.60;99.90
24232;DHT22;12364;47.810;8.810;2024-01-07T13:39:40;4.40;99.90
24232;DHT22;12364;47.810;8.810;2024-01-07T13:42:07;4.40;99.90
24232;DHT22;12364;47.810;8.810;2024-01-07T13:44:34;4.40;99.90
24232;DHT22;12364;47.810;8.810;2024-01-07T13:47:01;4.30;99.90
24232;DHT22;12364;47.810;8.810;2024-01-07T13:49:28;4.40;99.90
24232;DHT22;12364;47.810;8.810;2024-01-07T13:51:56;4.30;99.90
24232;DHT22;12364;47.810;8.810;2024-01-07T13:54:23;4.40;99.90
24232;DHT22;12364;47.810;8.810;2024-01-07T13:56:50;4.40;99.90
24232;DHT22;12364;47.810;8.810;2024-01-07T13:59:18;4.40;99.90
24232;DHT22;12364;47.810;8.810;2024-01-07T14:01:45;4.40;99.90
24232;DHT22;12364;47.810;8.810;2024-01-07T14:04:12;4.40;99.90
24232;DHT22;12364;47.810;8.810;2024-01-07T14:06:40;4.00;99.90
24232;DHT22;12364;47.810;8.810;2024-01-07T14:09:07;3.80;99.90
24232;DHT22;12364;47.810;8.810;2024-01-07T14:11:35;3.80;99.90
24232;DHT22;12364;47.810;8.810;2024-01-07T14:14:02;4.00;99.90
24232;DHT22;12364;47.810;8.810;2024-01-07T14:16:29;4.00;99.90
24232;DHT22;12364;47.810;8.810;2024-01-07T14:18:56;4.20;99.90
24232;DHT22;12364;47.810;8.810;2024-01-07T14:21:24;4.20;99.90
24232;DHT22;12364;47.810;8.810;2024-01-07T14:23:52;4.10;99.90
24232;DHT22;12364;47.810;8.810;2024-01-07T14:26:19;4.00;99.90
24232;DHT22;12364;47.810;8.810;2024-01-07T14:28:50;4.30;99.90
24232;DHT22;12364;47.810;8.810;2024-01-07T14:31:37;4.30;99.90
24232;DHT22;12364;47.810;8.810;2024-01-07T14:34:04;4.40;99.90
24232;DHT22;12364;47.810;8.810;2024-01-07T14:36:31;4.20;99.90
24232;DHT22;12364;47.810;8.810;2024-01-07T14:38:58;4.20;99.90
24232;DHT22;12364;47.810;8.810;2024-01-07T14:41:25;4.30;99.90
24232;DHT22;12364;47.810;8.810;2024-01-07T14:43:53;4.30;99.90
24232;DHT22;12364;47.810;8.810;2024-01-07T14:46:21;4.30;99.90
24232;DHT22;12364;47.810;8.810;2024-01-07T14:48:48;4.40;99.90
24232;DHT22;12364;47.810;8.810;2024-01-07T14:51:15;4.50;99.90
24232;DHT22;12364;47.810;8.810;2024-01-07T14:53:42;4.60;99.90
24232;DHT22;12364;47.810;8.810;2024-01-07T14:56:09;4.70;99.90
24232;DHT22;12364;47.810;8.810;2024-01-07T14:58:36;4.50;99.90
24232;DHT22;12364;47.810;8.810;2024-01-07T15:01:03;4.40;99.90
24232;DHT22;12364;47.810;8.810;2024-01-07T15:03:30;4.30;99.90
24232;DHT22;12364;47.810;8.810;2024-01-07T15:05:57;4.20;99.90
24232;DHT22;12364;47.810;8.810;2024-01-07T15:08:25;4.00;99.90
24232;DHT22;12364;47.810;8.810;2024-01-07T15:10:52;4.00;99.90
24232;DHT22;12364;47.810;8.810;2024-01-07T15:13:19;3.90;99.90
24232;DHT22;12364;47.810;8.810;2024-01-07T15:15:47;3.90;99.90
24232;DHT22;12364;47.810;8.810;2024-01-07T15:18:15;3.80;99.90
24232;DHT22;12364;47.810;8.810;2024-01-07T15:20:43;3.80;99.90
24232;DHT22;12364;47.810;8.810;2024-01-07T15:23:10;3.90;99.90
24232;DHT22;12364;47.810;8.810;2024-01-07T15:25:37;4.10;99.90
24232;DHT22;12364;47.810;8.810;2024-01-07T15:28:04;4.10;99.90
24232;DHT22;12364;47.810;8.810;2024-01-07T15:30:31;4.20;99.90
24232;DHT22;12364;47.810;8.810;2024-01-07T15:32:58;4.30;99.90
24232;DHT22;12364;47.810;8.810;2024-01-07T15:35:26;4.30;99.90
24232;DHT22;12364;47.810;8.810;2024-01-07T15:37:53;4.30;99.90
24232;DHT22;12364;47.810;8.810;2024-01-07T15:40:21;4.50;99.90
24232;DHT22;12364;47.810;8.810;2024-01-07T15:42:48;4.30;99.90
24232;DHT22;12364;47.810;8.810;2024-01-07T15:45:15;4.30;99.90
24232;DHT22;12364;47.810;8.810;2024-01-07T15:47:43;4.40;99.90
24232;DHT22;12364;47.810;8.810;2024-01-07T15:50:13;4.60;99.90
24232;DHT22;12364;47.810;8.810;2024-01-07T15:52:41;4.60;99.90
24232;DHT22;12364;47.810;8.810;2024-01-07T15:55:13;4.70;99.90
24232;DHT22;12364;47.810;8.810;2024-01-07T15:57:41;4.60;99.90
24232;DHT22;12364;47.810;8.810;2024-01-07T16:00:14;4.80;99.90
24232;DHT22;12364;47.810;8.810;2024-01-07T16:02:41;4.70;99.90
24232;DHT22;12364;47.810;8.810;2024-01-07T16:05:09;4.50;99.90
24232;DHT22;12364;47.810;8.810;2024-01-07T16:07:36;4.30;99.90
24232;DHT22;12364;47.810;8.810;2024-01-07T16:10:03;3.80;99.90
24232;DHT22;12364;47.810;8.810;2024-01-07T16:12:30;3.80;99.90
24232;DHT22;12364;47.810;8.810;2024-01-07T16:14:58;3.90;99.90
24232;DHT22;12364;47.810;8.810;2024-01-07T16:17:25;4.00;99.90
24232;DHT22;12364;47.810;8.810;2024-01-07T16:19:52;4.00;99.90
24232;DHT22;12364;47.810;8.810;2024-01-07T16:22:19;4.00;99.90
24232;DHT22;12364;47.810;8.810;2024-01-07T16:24:47;4.00;99.90
24232;DHT22;12364;47.810;8.810;2024-01-07T16:27:14;4.00;99.90
24232;DHT22;12364;47.810;8.810;2024-01-07T16:29:41;3.80;99.90
24232;DHT22;12364;47.810;8.810;2024-01-07T16:32:12;3.70;99.90
24232;DHT22;12364;47.810;8.810;2024-01-07T16:34:40;3.70;99.90
24232;DHT22;12364;47.810;8.810;2024-01-07T16:37:07;3.40;99.90
24232;DHT22;12364;47.810;8.810;2024-01-07T16:39:34;3.30;99.90
24232;DHT22;12364;47.810;8.810;2024-01-07T16:42:01;3.20;99.90
24232;DHT22;12364;47.810;8.810;2024-01-07T16:44:29;3.40;99.90
24232;DHT22;12364;47.810;8.810;2024-01-07T16:46:56;3.40;99.90
24232;DHT22;12364;47.810;8.810;2024-01-07T16:49:23;3.40;99.90
24232;DHT22;12364;47.810;8.810;2024-01-07T16:51:53;3.30;99.90
24232;DHT22;12364;47.810;8.810;2024-01-07T16:54:20;3.30;99.90
24232;DHT22;12364;47.810;8.810;2024-01-07T16:56:47;3.10;99.90
24232;DHT22;12364;47.810;8.810;2024-01-07T16:59:14;3.30;99.90
24232;DHT22;12364;47.810;8.810;2024-01-07T17:01:43;3.20;99.90
24232;DHT22;12364;47.810;8.810;2024-01-07T17:04:10;3.30;99.90
24232;DHT22;12364;47.810;8.810;2024-01-07T17:06:37;3.40;99.90
24232;DHT22;12364;47.810;8.810;2024-01-07T17:09:04;3.10;99.90
24232;DHT22;12364;47.810;8.810;2024-01-07T17:11:31;3.30;99.90
24232;DHT22;12364;47.810;8.810;2024-01-07T17:13:58;3.40;99.90
24232;DHT22;12364;47.810;8.810;2024-01-07T17:16:26;3.50;99.90
24232;DHT22;12364;47.810;8.810;2024-01-07T17:18:55;3.40;99.90
24232;DHT22;12364;47.810;8.810;2024-01-07T17:21:23;3.20;99.90
24232;DHT22;12364;47.810;8.810;2024-01-07T17:23:51;2.80;99.90
24232;DHT22;12364;47.810;8.810;2024-01-07T17:26:19;3.10;99.90
24232;DHT22;12364;47.810;8.810;2024-01-07T17:28:46;3.00;99.90
24232;DHT22;12364;47.810;8.810;2024-01-07T17:31:14;2.80;99.90
24232;DHT22;12364;47.810;8.810;2024-01-07T17:33:41;2.70;99.90
24232;DHT22;12364;47.810;8.810;2024-01-07T17:36:08;2.60;99.90
24232;DHT22;12364;47.810;8.810;2024-01-07T17:38:35;2.60;99.90
24232;DHT22;12364;47.810;8.810;2024-01-07T17:41:02;2.50;99.90
24232;DHT22;12364;47.810;8.810;2024-01-07T17:43:30;2.50;99.90
24232;DHT22;12364;47.810;8.810;2024-01-07T17:45:57;2.40;99.90
24232;DHT22;12364;47.810;8.810;2024-01-07T17:48:25;2.30;99.90
24232;DHT22;12364;47.810;8.810;2024-01-07T17:50:53;2.30;99.90
24232;DHT22;12364;47.810;8.810;2024-01-07T17:53:21;2.30;99.90
24232;DHT22;12364;47.810;8.810;2024-01-07T17:55:49;2.40;99.90
24232;DHT22;12364;47.810;8.810;2024-01-07T17:58:16;2.60;99.90
24232;DHT22;12364;47.810;8.810;2024-01-07T18:00:43;2.50;99.90
24232;DHT22;12364;47.810;8.810;2024-01-07T18:03:11;2.60;99.90
24232;DHT22;12364;47.810;8.810;2024-01-07T18:05:38;2.50;99.90
24232;DHT22;12364;47.810;8.810;2024-01-07T18:08:06;2.40;99.90
24232;DHT22;12364;47.810;8.810;2024-01-07T18:10:33;2.40;99.90
24232;DHT22;12364;47.810;8.810;2024-01-07T18:13:00;2.60;99.90
24232;DHT22;12364;47.810;8.810;2024-01-07T18:15:29;2.30;99.90
24232;DHT22;12364;47.810;8.810;2024-01-07T18:17:56;2.40;99.90
24232;DHT22;12364;47.810;8.810;2024-01-07T18:20:23;2.60;99.90
24232;DHT22;12364;47.810;8.810;2024-01-07T18:22:50;2.50;99.90
24232;DHT22;12364;47.810;8.810;2024-01-07T18:25:17;2.30;99.90
24232;DHT22;12364;47.810;8.810;2024-01-07T18:27:44;2.00;99.90
24232;DHT22;12364;47.810;8.810;2024-01-07T18:30:11;2.10;99.90
24232;DHT22;12364;47.810;8.810;2024-01-07T18:32:39;2.00;99.90
24232;DHT22;12364;47.810;8.810;2024-01-07T18:35:06;2.00;99.90
24232;DHT22;12364;47.810;8.810;2024-01-07T18:37:33;2.20;99.90
24232;DHT22;12364;47.810;8.810;2024-01-07T18:40:01;2.10;99.90
24232;DHT22;12364;47.810;8.810;2024-01-07T18:42:28;2.10;99.90
24232;DHT22;12364;47.810;8.810;2024-01-07T18:44:56;2.30;99.90
24232;DHT22;12364;47.810;8.810;2024-01-07T18:47:23;2.20;99.90
24232;DHT22;12364;47.810;8.810;2024-01-07T18:49:52;2.40;99.90
24232;DHT22;12364;47.810;8.810;2024-01-07T18:52:19;2.30;99.90
24232;DHT22;12364;47.810;8.810;2024-01-07T18:54:46;2.40;99.90
24232;DHT22;12364;47.810;8.810;2024-01-07T18:57:13;2.50;99.90
24232;DHT22;12364;47.810;8.810;2024-01-07T18:59:41;2.40;99.90
24232;DHT22;12364;47.810;8.810;2024-01-07T19:02:08;2.20;99.90
24232;DHT22;12364;47.810;8.810;2024-01-07T19:04:41;2.30;99.90
24232;DHT22;12364;47.810;8.810;2024-01-07T19:07:09;2.20;99.90
24232;DHT22;12364;47.810;8.810;2024-01-07T19:09:36;2.10;99.90
24232;DHT22;12364;47.810;8.810;2024-01-07T19:12:04;1.90;99.90
24232;DHT22;12364;47.810;8.810;2024-01-07T19:14:31;1.90;99.90
24232;DHT22;12364;47.810;8.810;2024-01-07T19:17:03;2.10;99.90
24232;DHT22;12364;47.810;8.810;2024-01-07T19:19:31;2.10;99.90
24232;DHT22;12364;47.810;8.810;2024-01-07T19:21:58;1.90;99.90
24232;DHT22;12364;47.810;8.810;2024-01-07T19:24:25;2.10;99.90
24232;DHT22;12364;47.810;8.810;2024-01-07T19:26:53;2.20;99.90
24232;DHT22;12364;47.810;8.810;2024-01-07T19:29:20;2.30;99.90
24232;DHT22;12364;47.810;8.810;2024-01-07T19:31:47;2.20;99.90
24232;DHT22;12364;47.810;8.810;2024-01-07T19:34:14;1.80;99.90
24232;DHT22;12364;47.810;8.810;2024-01-07T19:36:41;1.90;99.90
24232;DHT22;12364;47.810;8.810;2024-01-07T19:39:09;1.90;99.90
24232;DHT22;12364;47.810;8.810;2024-01-07T19:41:39;2.00;99.90
24232;DHT22;12364;47.810;8.810;2024-01-07T19:44:06;2.00;99.90
24232;DHT22;12364;47.810;8.810;2024-01-07T19:46:34;2.00;99.90
24232;DHT22;12364;47.810;8.810;2024-01-07T19:49:02;2.00;99.90
24232;DHT22;12364;47.810;8.810;2024-01-07T19:51:29;1.90;99.90
24232;DHT22;12364;47.810;8.810;2024-01-07T19:53:56;1.80;99.90
24232;DHT22;12364;47.810;8.810;2024-01-07T19:56:24;1.80;99.90
24232;DHT22;12364;47.810;8.810;2024-01-07T19:58:51;1.90;99.90
24232;DHT22;12364;47.810;8.810;2024-01-07T20:01:19;1.90;99.90
24232;DHT22;12364;47.810;8.810;2024-01-07T20:03:46;1.90;99.90
24232;DHT22;12364;47.810;8.810;2024-01-07T20:06:13;1.80;99.90
24232;DHT22;12364;47.810;8.810;2024-01-07T20:08:42;1.90;99.90
24232;DHT22;12364;47.810;8.810;2024-01-07T20:11:19;1.90;99.90
24232;DHT22;12364;47.810;8.810;2024-01-07T20:13:47;1.90;99.90
24232;DHT22;12364;47.810;8.810;2024-01-07T20:16:14;1.70;99.90
24232;DHT22;12364;47.810;8.810;2024-01-07T20:18:46;1.70;99.90
24232;DHT22;12364;47.810;8.810;2024-01-07T20:23:46;1.70;99.90
24232;DHT22;12364;47.810;8.810;2024-01-07T20:26:13;1.70;99.90
24232;DHT22;12364;47.810;8.810;2024-01-07T20:28:40;1.60;99.90
24232;DHT22;12364;47.810;8.810;2024-01-07T20:31:07;1.70;99.90
24232;DHT22;12364;47.810;8.810;2024-01-07T20:33:37;1.80;99.90
24232;DHT22;12364;47.810;8.810;2024-01-07T20:36:04;1.80;99.90
24232;DHT22;12364;47.810;8.810;2024-01-07T20:38:35;1.80;99.90
24232;DHT22;12364;47.810;8.810;2024-01-07T20:41:02;1.70;99.90
24232;DHT22;12364;47.810;8.810;2024-01-07T20:43:29;1.80;99.90
24232;DHT22;12364;47.810;8.810;2024-01-07T20:45:57;1.80;99.90
24232;DHT22;12364;47.810;8.810;2024-01-07T20:48:24;1.90;99.90
24232;DHT22;12364;47.810;8.810;2024-01-07T20:50:51;1.90;99.90
24232;DHT22;12364;47.810;8.810;2024-01-07T20:53:19;1.80;99.90
24232;DHT22;12364;47.810;8.810;2024-01-07T20:55:47;1.90;99.90
24232;DHT22;12364;47.810;8.810;2024-01-07T20:58:15;1.80;99.90